sensor_id;sensor_type;location;lat;lon;timestamp;P1;durP1;ratioP1;P2;durP2;ratioP2
6485;SDS011;3276;48.490;9.222;2023-07-22T00:00:58;4.13;;;2.00;;
6485;SDS011;3276;48.490;9.222;2023-07-22T00:03:24;2.70;;;1.73;;
6485;SDS011;3276;48.490;9.222;2023-07-22T00:06:01;4.17;;;2.20;;
6485;SDS011;3276;48.490;9.222;2023-07-22T00:08:31;3.20;;;1.90;;
6485;SDS011;3276;48.490;9.222;2023-07-22T00:10:57;2.67;;;1.80;;
6485;SDS011;3276;48.490;9.222;2023-07-22T00:13:23;4.80;;;2.03;;
6485;SDS011;3276;48.490;9.222;2023-07-22T00:15:48;4.67;;;2.30;;
6485;SDS011;3276;48.490;9.222;2023-07-22T00:18:15;3.43;;;1.67;;
6485;SDS011;3276;48.490;9.222;2023-07-22T00:20:41;3.80;;;2.47;;
6485;SDS011;3276;48.490;9.222;2023-07-22T00:23:07;2.30;;;1.77;;
6485;SDS011;3276;48.490;9.222;2023-07-22T00:25:32;4.13;;;2.23;;
6485;SDS011;3276;48.490;9.222;2023-07-22T00:27:58;3.70;;;1.90;;
6485;SDS011;3276;48.490;9.222;2023-07-22T00:30:23;2.90;;;1.40;;
6485;SDS011;3276;48.490;9.222;2023-07-22T00:32:50;3.20;;;1.97;;
6485;SDS011;3276;48.490;9.222;2023-07-22T00:35:15;4.43;;;2.77;;
6485;SDS011;3276;48.490;9.222;2023-07-22T00:37:41;3.20;;;1.80;;
6485;SDS011;3276;48.490;9.222;2023-07-22T00:40:07;3.00;;;1.43;;
6485;SDS011;3276;48.490;9.222;2023-07-22T00:42:36;3.27;;;2.23;;
6485;SDS011;3276;48.490;9.222;2023-07-22T00:45:03;4.60;;;2.40;;
6485;SDS011;3276;48.490;9.222;2023-07-22T00:47:28;4.30;;;2.03;;
6485;SDS011;3276;48.490;9.222;2023-07-22T00:49:54;2.90;;;2.13;;
6485;SDS011;3276;48.490;9.222;2023-07-22T00:52:20;2.90;;;2.20;;
6485;SDS011;3276;48.490;9.222;2023-07-22T00:54:46;2.50;;;1.63;;
6485;SDS011;3276;48.490;9.222;2023-07-22T00:57:12;2.83;;;1.60;;
6485;SDS011;3276;48.490;9.222;2023-07-22T00:59:38;3.20;;;1.77;;
6485;SDS011;3276;48.490;9.222;2023-07-22T01:02:05;7.30;;;2.10;;
6485;SDS011;3276;48.490;9.222;2023-07-22T01:04:32;2.83;;;2.20;;
6485;SDS011;3276;48.490;9.222;2023-07-22T01:06:59;2.70;;;1.53;;
6485;SDS011;3276;48.490;9.222;2023-07-22T01:09:25;3.80;;;2.37;;
6485;SDS011;3276;48.490;9.222;2023-07-22T01:11:50;2.77;;;1.67;;
6485;SDS011;3276;48.490;9.222;2023-07-22T01:14:16;2.97;;;2.37;;
6485;SDS011;3276;48.490;9.222;2023-07-22T01:16:42;3.63;;;2.63;;
6485;SDS011;3276;48.490;9.222;2023-07-22T01:19:07;3.33;;;1.83;;
6485;SDS011;3276;48.490;9.222;2023-07-22T01:21:35;6.13;;;2.80;;
6485;SDS011;3276;48.490;9.222;2023-07-22T01:24:02;2.90;;;1.77;;
6485;SDS011;3276;48.490;9.222;2023-07-22T01:26:27;3.97;;;1.67;;
6485;SDS011;3276;48.490;9.222;2023-07-22T01:29:01;6.60;;;1.90;;
6485;SDS011;3276;48.490;9.222;2023-07-22T01:31:28;2.80;;;1.97;;
6485;SDS011;3276;48.490;9.222;2023-07-22T01:33:53;4.70;;;2.20;;
6485;SDS011;3276;48.490;9.222;2023-07-22T01:36:19;4.50;;;1.77;;
6485;SDS011;3276;48.490;9.222;2023-07-22T01:38:44;4.03;;;2.30;;
6485;SDS011;3276;48.490;9.222;2023-07-22T01:41:10;3.87;;;3.10;;
6485;SDS011;3276;48.490;9.222;2023-07-22T01:43:36;4.30;;;1.77;;
6485;SDS011;3276;48.490;9.222;2023-07-22T01:46:01;3.13;;;2.07;;
6485;SDS011;3276;48.490;9.222;2023-07-22T01:48:27;2.87;;;2.00;;
6485;SDS011;3276;48.490;9.222;2023-07-22T01:50:53;3.47;;;2.00;;
6485;SDS011;3276;48.490;9.222;2023-07-22T01:53:19;2.20;;;1.50;;
6485;SDS011;3276;48.490;9.222;2023-07-22T01:55:45;3.57;;;2.10;;
6485;SDS011;3276;48.490;9.222;2023-07-22T01:58:11;3.97;;;2.00;;
6485;SDS011;3276;48.490;9.222;2023-07-22T02:00:36;3.03;;;2.30;;
6485;SDS011;3276;48.490;9.222;2023-07-22T02:03:02;3.97;;;1.90;;
6485;SDS011;3276;48.490;9.222;2023-07-22T02:05:28;3.00;;;1.87;;
6485;SDS011;3276;48.490;9.222;2023-07-22T02:07:55;3.90;;;2.30;;
6485;SDS011;3276;48.490;9.222;2023-07-22T02:10:21;4.23;;;2.13;;
6485;SDS011;3276;48.490;9.222;2023-07-22T02:12:46;4.50;;;2.00;;
6485;SDS011;3276;48.490;9.222;2023-07-22T02:15:12;3.10;;;1.67;;
6485;SDS011;3276;48.490;9.222;2023-07-22T02:17:37;3.30;;;1.73;;
6485;SDS011;3276;48.490;9.222;2023-07-22T02:20:03;2.40;;;1.60;;
6485;SDS011;3276;48.490;9.222;2023-07-22T02:22:30;4.53;;;2.37;;
6485;SDS011;3276;48.490;9.222;2023-07-22T02:24:55;2.87;;;1.93;;
6485;SDS011;3276;48.490;9.222;2023-07-22T02:27:21;3.43;;;2.00;;
6485;SDS011;3276;48.490;9.222;2023-07-22T02:29:46;3.33;;;2.30;;
6485;SDS011;3276;48.490;9.222;2023-07-22T02:32:12;3.40;;;2.50;;
6485;SDS011;3276;48.490;9.222;2023-07-22T02:34:37;5.60;;;1.90;;
6485;SDS011;3276;48.490;9.222;2023-07-22T02:37:03;2.30;;;1.50;;
6485;SDS011;3276;48.490;9.222;2023-07-22T02:39:29;3.13;;;1.97;;
6485;SDS011;3276;48.490;9.222;2023-07-22T02:41:55;4.93;;;2.10;;
6485;SDS011;3276;48.490;9.222;2023-07-22T02:44:20;2.73;;;2.00;;
6485;SDS011;3276;48.490;9.222;2023-07-22T02:46:46;3.20;;;2.10;;
6485;SDS011;3276;48.490;9.222;2023-07-22T02:49:12;4.20;;;2.00;;
6485;SDS011;3276;48.490;9.222;2023-07-22T02:51:37;3.97;;;2.40;;
6485;SDS011;3276;48.490;9.222;2023-07-22T02:54:03;3.40;;;1.83;;
6485;SDS011;3276;48.490;9.222;2023-07-22T02:56:28;3.17;;;2.00;;
6485;SDS011;3276;48.490;9.222;2023-07-22T02:58:54;4.00;;;2.17;;
6485;SDS011;3276;48.490;9.222;2023-07-22T03:01:19;3.20;;;2.37;;
6485;SDS011;3276;48.490;9.222;2023-07-22T03:03:45;2.90;;;1.87;;
6485;SDS011;3276;48.490;9.222;2023-07-22T03:06:11;5.47;;;3.70;;
6485;SDS011;3276;48.490;9.222;2023-07-22T03:08:36;2.50;;;1.83;;
6485;SDS011;3276;48.490;9.222;2023-07-22T03:11:02;2.80;;;1.77;;
6485;SDS011;3276;48.490;9.222;2023-07-22T03:13:28;3.27;;;1.90;;
6485;SDS011;3276;48.490;9.222;2023-07-22T03:15:54;3.50;;;1.70;;
6485;SDS011;3276;48.490;9.222;2023-07-22T03:18:20;3.63;;;2.10;;
6485;SDS011;3276;48.490;9.222;2023-07-22T03:20:46;3.37;;;1.53;;
6485;SDS011;3276;48.490;9.222;2023-07-22T03:23:11;3.80;;;1.87;;
6485;SDS011;3276;48.490;9.222;2023-07-22T03:25:37;4.10;;;2.20;;
6485;SDS011;3276;48.490;9.222;2023-07-22T03:28:03;5.43;;;2.40;;
6485;SDS011;3276;48.490;9.222;2023-07-22T03:30:30;3.30;;;2.13;;
6485;SDS011;3276;48.490;9.222;2023-07-22T03:32:55;3.87;;;2.00;;
6485;SDS011;3276;48.490;9.222;2023-07-22T03:35:22;3.63;;;2.20;;
6485;SDS011;3276;48.490;9.222;2023-07-22T03:37:47;2.93;;;2.03;;
6485;SDS011;3276;48.490;9.222;2023-07-22T03:40:13;3.47;;;2.30;;
6485;SDS011;3276;48.490;9.222;2023-07-22T03:42:48;4.50;;;2.20;;
6485;SDS011;3276;48.490;9.222;2023-07-22T03:45:15;3.60;;;2.30;;
6485;SDS011;3276;48.490;9.222;2023-07-22T03:47:41;2.70;;;1.40;;
6485;SDS011;3276;48.490;9.222;2023-07-22T03:50:08;5.77;;;2.70;;
6485;SDS011;3276;48.490;9.222;2023-07-22T03:52:34;4.30;;;2.07;;
6485;SDS011;3276;48.490;9.222;2023-07-22T03:55:00;3.20;;;1.83;;
6485;SDS011;3276;48.490;9.222;2023-07-22T03:57:28;2.53;;;1.80;;
6485;SDS011;3276;48.490;9.222;2023-07-22T03:59:54;3.30;;;2.20;;
6485;SDS011;3276;48.490;9.222;2023-07-22T04:02:20;3.63;;;2.23;;
6485;SDS011;3276;48.490;9.222;2023-07-22T04:04:46;6.77;;;2.50;;
6485;SDS011;3276;48.490;9.222;2023-07-22T04:07:12;3.50;;;1.90;;
6485;SDS011;3276;48.490;9.222;2023-07-22T04:09:37;3.93;;;2.10;;
6485;SDS011;3276;48.490;9.222;2023-07-22T04:12:03;3.40;;;2.17;;
6485;SDS011;3276;48.490;9.222;2023-07-22T04:14:29;3.37;;;2.00;;
6485;SDS011;3276;48.490;9.222;2023-07-22T04:16:55;4.20;;;2.60;;
6485;SDS011;3276;48.490;9.222;2023-07-22T04:19:20;4.60;;;2.40;;
6485;SDS011;3276;48.490;9.222;2023-07-22T04:21:46;2.90;;;1.90;;
6485;SDS011;3276;48.490;9.222;2023-07-22T04:24:12;4.67;;;2.80;;
6485;SDS011;3276;48.490;9.222;2023-07-22T04:26:37;4.10;;;2.43;;
6485;SDS011;3276;48.490;9.222;2023-07-22T04:29:03;4.70;;;2.17;;
6485;SDS011;3276;48.490;9.222;2023-07-22T04:31:28;3.50;;;2.23;;
6485;SDS011;3276;48.490;9.222;2023-07-22T04:33:54;3.73;;;1.87;;
6485;SDS011;3276;48.490;9.222;2023-07-22T04:36:19;4.03;;;2.10;;
6485;SDS011;3276;48.490;9.222;2023-07-22T04:38:45;4.03;;;2.23;;
6485;SDS011;3276;48.490;9.222;2023-07-22T04:41:10;5.00;;;2.20;;
6485;SDS011;3276;48.490;9.222;2023-07-22T04:43:36;3.77;;;2.60;;
6485;SDS011;3276;48.490;9.222;2023-07-22T04:46:01;4.73;;;2.80;;
6485;SDS011;3276;48.490;9.222;2023-07-22T04:48:27;4.20;;;1.93;;
6485;SDS011;3276;48.490;9.222;2023-07-22T04:50:52;3.50;;;2.20;;
6485;SDS011;3276;48.490;9.222;2023-07-22T04:53:18;2.40;;;1.77;;
6485;SDS011;3276;48.490;9.222;2023-07-22T04:55:44;3.20;;;2.40;;
6485;SDS011;3276;48.490;9.222;2023-07-22T04:58:10;4.97;;;1.90;;
6485;SDS011;3276;48.490;9.222;2023-07-22T05:00:35;4.17;;;1.80;;
6485;SDS011;3276;48.490;9.222;2023-07-22T05:03:04;4.47;;;2.13;;
6485;SDS011;3276;48.490;9.222;2023-07-22T05:05:31;3.50;;;2.40;;
6485;SDS011;3276;48.490;9.222;2023-07-22T05:07:57;3.17;;;2.10;;
6485;SDS011;3276;48.490;9.222;2023-07-22T05:10:22;2.50;;;1.80;;
6485;SDS011;3276;48.490;9.222;2023-07-22T05:12:48;3.67;;;1.93;;
6485;SDS011;3276;48.490;9.222;2023-07-22T05:15:13;4.10;;;2.37;;
6485;SDS011;3276;48.490;9.222;2023-07-22T05:17:40;3.40;;;1.83;;
6485;SDS011;3276;48.490;9.222;2023-07-22T05:20:06;3.73;;;2.37;;
6485;SDS011;3276;48.490;9.222;2023-07-22T05:22:34;3.70;;;1.80;;
6485;SDS011;3276;48.490;9.222;2023-07-22T05:25:01;3.37;;;2.33;;
6485;SDS011;3276;48.490;9.222;2023-07-22T05:27:26;4.63;;;1.97;;
6485;SDS011;3276;48.490;9.222;2023-07-22T05:29:52;3.37;;;2.30;;
6485;SDS011;3276;48.490;9.222;2023-07-22T05:32:17;3.53;;;2.00;;
6485;SDS011;3276;48.490;9.222;2023-07-22T05:34:43;2.87;;;1.83;;
6485;SDS011;3276;48.490;9.222;2023-07-22T05:37:08;4.33;;;2.30;;
6485;SDS011;3276;48.490;9.222;2023-07-22T05:39:34;2.20;;;1.50;;
6485;SDS011;3276;48.490;9.222;2023-07-22T05:41:59;2.70;;;2.50;;
6485;SDS011;3276;48.490;9.222;2023-07-22T05:44:25;4.13;;;3.77;;
6485;SDS011;3276;48.490;9.222;2023-07-22T05:46:51;4.83;;;3.83;;
6485;SDS011;3276;48.490;9.222;2023-07-22T05:49:16;4.20;;;3.90;;
6485;SDS011;3276;48.490;9.222;2023-07-22T05:51:42;3.63;;;3.37;;
6485;SDS011;3276;48.490;9.222;2023-07-22T05:54:10;4.50;;;4.20;;
6485;SDS011;3276;48.490;9.222;2023-07-22T05:56:36;4.33;;;4.00;;
6485;SDS011;3276;48.490;9.222;2023-07-22T05:59:02;4.93;;;4.63;;
6485;SDS011;3276;48.490;9.222;2023-07-22T06:01:27;4.70;;;4.40;;
6485;SDS011;3276;48.490;9.222;2023-07-22T06:03:53;4.80;;;4.50;;
6485;SDS011;3276;48.490;9.222;2023-07-22T06:06:18;4.63;;;4.33;;
6485;SDS011;3276;48.490;9.222;2023-07-22T06:08:44;5.57;;;5.07;;
6485;SDS011;3276;48.490;9.222;2023-07-22T06:11:09;5.40;;;5.07;;
6485;SDS011;3276;48.490;9.222;2023-07-22T06:13:35;5.73;;;5.33;;
6485;SDS011;3276;48.490;9.222;2023-07-22T06:16:03;5.30;;;5.00;;
6485;SDS011;3276;48.490;9.222;2023-07-22T06:18:28;6.10;;;5.70;;
6485;SDS011;3276;48.490;9.222;2023-07-22T06:20:54;5.83;;;5.33;;
6485;SDS011;3276;48.490;9.222;2023-07-22T06:23:20;5.57;;;5.17;;
6485;SDS011;3276;48.490;9.222;2023-07-22T06:25:45;5.17;;;4.87;;
6485;SDS011;3276;48.490;9.222;2023-07-22T06:28:11;5.80;;;5.40;;
6485;SDS011;3276;48.490;9.222;2023-07-22T06:30:36;5.47;;;5.07;;
6485;SDS011;3276;48.490;9.222;2023-07-22T06:33:02;4.97;;;4.63;;
6485;SDS011;3276;48.490;9.222;2023-07-22T06:35:27;5.17;;;4.87;;
6485;SDS011;3276;48.490;9.222;2023-07-22T06:37:53;5.50;;;5.10;;
6485;SDS011;3276;48.490;9.222;2023-07-22T06:40:19;5.87;;;5.47;;
6485;SDS011;3276;48.490;9.222;2023-07-22T06:42:44;5.60;;;5.10;;
6485;SDS011;3276;48.490;9.222;2023-07-22T06:45:10;5.37;;;4.90;;
6485;SDS011;3276;48.490;9.222;2023-07-22T06:47:35;5.50;;;5.20;;
6485;SDS011;3276;48.490;9.222;2023-07-22T06:50:02;5.30;;;4.90;;
6485;SDS011;3276;48.490;9.222;2023-07-22T06:52:29;5.40;;;5.00;;
6485;SDS011;3276;48.490;9.222;2023-07-22T06:54:55;4.97;;;4.67;;
6485;SDS011;3276;48.490;9.222;2023-07-22T06:57:20;5.73;;;5.33;;
6485;SDS011;3276;48.490;9.222;2023-07-22T06:59:46;5.53;;;5.13;;
6485;SDS011;3276;48.490;9.222;2023-07-22T07:02:12;5.03;;;4.73;;
6485;SDS011;3276;48.490;9.222;2023-07-22T07:04:37;5.57;;;5.00;;
6485;SDS011;3276;48.490;9.222;2023-07-22T07:07:03;4.83;;;4.53;;
6485;SDS011;3276;48.490;9.222;2023-07-22T07:09:29;5.57;;;5.17;;
6485;SDS011;3276;48.490;9.222;2023-07-22T07:11:55;6.40;;;5.80;;
6485;SDS011;3276;48.490;9.222;2023-07-22T07:14:22;5.63;;;4.90;;
6485;SDS011;3276;48.490;9.222;2023-07-22T07:16:48;5.77;;;5.37;;
6485;SDS011;3276;48.490;9.222;2023-07-22T07:19:14;5.57;;;5.17;;
6485;SDS011;3276;48.490;9.222;2023-07-22T07:21:40;5.00;;;4.70;;
6485;SDS011;3276;48.490;9.222;2023-07-22T07:24:05;4.87;;;4.50;;
6485;SDS011;3276;48.490;9.222;2023-07-22T07:26:31;5.37;;;4.97;;
6485;SDS011;3276;48.490;9.222;2023-07-22T07:28:56;5.40;;;5.00;;
6485;SDS011;3276;48.490;9.222;2023-07-22T07:31:22;4.83;;;4.53;;
6485;SDS011;3276;48.490;9.222;2023-07-22T07:33:48;5.57;;;5.17;;
6485;SDS011;3276;48.490;9.222;2023-07-22T07:36:13;4.90;;;4.60;;
6485;SDS011;3276;48.490;9.222;2023-07-22T07:38:39;4.70;;;4.40;;
6485;SDS011;3276;48.490;9.222;2023-07-22T07:41:05;4.60;;;4.30;;
6485;SDS011;3276;48.490;9.222;2023-07-22T07:43:33;5.40;;;4.90;;
6485;SDS011;3276;48.490;9.222;2023-07-22T07:49:06;4.80;;;4.50;;
6485;SDS011;3276;48.490;9.222;2023-07-22T07:51:32;4.87;;;4.57;;
6485;SDS011;3276;48.490;9.222;2023-07-22T07:53:57;4.70;;;4.40;;
6485;SDS011;3276;48.490;9.222;2023-07-22T07:56:24;5.10;;;4.70;;
6485;SDS011;3276;48.490;9.222;2023-07-22T07:58:58;3.93;;;3.67;;
6485;SDS011;3276;48.490;9.222;2023-07-22T08:01:23;4.50;;;4.20;;
6485;SDS011;3276;48.490;9.222;2023-07-22T08:03:49;4.50;;;4.20;;
6485;SDS011;3276;48.490;9.222;2023-07-22T08:06:15;4.50;;;4.20;;
6485;SDS011;3276;48.490;9.222;2023-07-22T08:08:40;4.53;;;4.23;;
6485;SDS011;3276;48.490;9.222;2023-07-22T08:11:07;4.57;;;4.13;;
6485;SDS011;3276;48.490;9.222;2023-07-22T08:13:34;4.80;;;4.50;;
6485;SDS011;3276;48.490;9.222;2023-07-22T08:16:01;4.90;;;4.40;;
6485;SDS011;3276;48.490;9.222;2023-07-22T08:18:28;4.40;;;4.10;;
6485;SDS011;3276;48.490;9.222;2023-07-22T08:20:54;4.00;;;3.80;;
6485;SDS011;3276;48.490;9.222;2023-07-22T08:23:20;4.40;;;4.10;;
6485;SDS011;3276;48.490;9.222;2023-07-22T08:25:46;4.70;;;4.40;;
6485;SDS011;3276;48.490;9.222;2023-07-22T08:28:12;6.13;;;4.53;;
6485;SDS011;3276;48.490;9.222;2023-07-22T08:30:38;4.80;;;4.50;;
6485;SDS011;3276;48.490;9.222;2023-07-22T08:33:05;4.30;;;4.10;;
6485;SDS011;3276;48.490;9.222;2023-07-22T08:35:33;4.67;;;4.37;;
6485;SDS011;3276;48.490;9.222;2023-07-22T08:37:59;6.80;;;4.70;;
6485;SDS011;3276;48.490;9.222;2023-07-22T08:40:27;4.73;;;4.43;;
6485;SDS011;3276;48.490;9.222;2023-07-22T08:42:53;4.43;;;4.13;;
6485;SDS011;3276;48.490;9.222;2023-07-22T08:45:20;4.80;;;4.50;;
6485;SDS011;3276;48.490;9.222;2023-07-22T08:47:46;4.53;;;4.13;;
6485;SDS011;3276;48.490;9.222;2023-07-22T08:50:14;4.97;;;4.67;;
6485;SDS011;3276;48.490;9.222;2023-07-22T08:52:47;3.73;;;3.53;;
6485;SDS011;3276;48.490;9.222;2023-07-22T08:55:13;4.97;;;4.50;;
6485;SDS011;3276;48.490;9.222;2023-07-22T08:57:39;4.20;;;3.90;;
6485;SDS011;3276;48.490;9.222;2023-07-22T09:00:06;4.50;;;4.20;;
6485;SDS011;3276;48.490;9.222;2023-07-22T09:02:34;4.50;;;4.10;;
6485;SDS011;3276;48.490;9.222;2023-07-22T09:05:00;3.90;;;3.70;;
6485;SDS011;3276;48.490;9.222;2023-07-22T09:07:27;3.63;;;3.43;;
6485;SDS011;3276;48.490;9.222;2023-07-22T09:09:53;4.07;;;3.87;;
6485;SDS011;3276;48.490;9.222;2023-07-22T09:12:23;5.40;;;5.00;;
6485;SDS011;3276;48.490;9.222;2023-07-22T09:14:49;4.30;;;4.10;;
6485;SDS011;3276;48.490;9.222;2023-07-22T09:17:15;4.90;;;4.40;;
6485;SDS011;3276;48.490;9.222;2023-07-22T09:19:41;4.00;;;3.80;;
6485;SDS011;3276;48.490;9.222;2023-07-22T09:22:09;4.47;;;4.07;;
6485;SDS011;3276;48.490;9.222;2023-07-22T09:24:35;4.70;;;4.40;;
6485;SDS011;3276;48.490;9.222;2023-07-22T09:27:01;4.33;;;4.07;;
6485;SDS011;3276;48.490;9.222;2023-07-22T09:29:36;3.90;;;3.60;;
6485;SDS011;3276;48.490;9.222;2023-07-22T09:32:04;4.20;;;3.90;;
6485;SDS011;3276;48.490;9.222;2023-07-22T09:34:30;4.20;;;3.90;;
6485;SDS011;3276;48.490;9.222;2023-07-22T09:36:57;4.20;;;3.90;;
6485;SDS011;3276;48.490;9.222;2023-07-22T09:39:25;4.10;;;3.90;;
6485;SDS011;3276;48.490;9.222;2023-07-22T09:41:51;4.47;;;4.17;;
6485;SDS011;3276;48.490;9.222;2023-07-22T09:44:19;4.27;;;4.03;;
6485;SDS011;3276;48.490;9.222;2023-07-22T09:46:48;3.83;;;3.63;;
6485;SDS011;3276;48.490;9.222;2023-07-22T09:49:15;4.50;;;4.20;;
6485;SDS011;3276;48.490;9.222;2023-07-22T09:51:43;4.30;;;4.00;;
6485;SDS011;3276;48.490;9.222;2023-07-22T09:54:09;4.50;;;4.10;;
6485;SDS011;3276;48.490;9.222;2023-07-22T09:56:48;4.30;;;4.00;;
6485;SDS011;3276;48.490;9.222;2023-07-22T09:59:14;3.73;;;3.53;;
6485;SDS011;3276;48.490;9.222;2023-07-22T10:01:42;3.97;;;3.67;;
6485;SDS011;3276;48.490;9.222;2023-07-22T10:04:11;4.70;;;4.40;;
6485;SDS011;3276;48.490;9.222;2023-07-22T10:06:40;5.47;;;4.27;;
6485;SDS011;3276;48.490;9.222;2023-07-22T10:09:11;4.07;;;3.87;;
6485;SDS011;3276;48.490;9.222;2023-07-22T10:11:37;4.20;;;4.00;;
6485;SDS011;3276;48.490;9.222;2023-07-22T10:14:04;4.60;;;4.20;;
6485;SDS011;3276;48.490;9.222;2023-07-22T10:16:30;4.40;;;4.10;;
6485;SDS011;3276;48.490;9.222;2023-07-22T10:18:57;4.77;;;4.10;;
6485;SDS011;3276;48.490;9.222;2023-07-22T10:21:23;5.03;;;4.63;;
6485;SDS011;3276;48.490;9.222;2023-07-22T10:23:50;4.20;;;3.90;;
6485;SDS011;3276;48.490;9.222;2023-07-22T10:26:17;4.57;;;4.20;;
6485;SDS011;3276;48.490;9.222;2023-07-22T10:28:44;4.20;;;3.90;;
6485;SDS011;3276;48.490;9.222;2023-07-22T10:31:11;4.07;;;3.63;;
6485;SDS011;3276;48.490;9.222;2023-07-22T10:33:38;4.33;;;4.03;;
6485;SDS011;3276;48.490;9.222;2023-07-22T10:36:05;4.60;;;4.30;;
6485;SDS011;3276;48.490;9.222;2023-07-22T10:38:33;4.30;;;4.00;;
6485;SDS011;3276;48.490;9.222;2023-07-22T10:41:11;4.50;;;4.20;;
6485;SDS011;3276;48.490;9.222;2023-07-22T10:43:42;4.20;;;3.90;;
6485;SDS011;3276;48.490;9.222;2023-07-22T10:46:20;3.70;;;3.40;;
6485;SDS011;3276;48.490;9.222;2023-07-22T10:49:06;3.90;;;3.70;;
6485;SDS011;3276;48.490;9.222;2023-07-22T10:51:38;5.13;;;4.60;;
6485;SDS011;3276;48.490;9.222;2023-07-22T10:57:22;4.30;;;4.00;;
6485;SDS011;3276;48.490;9.222;2023-07-22T10:59:51;4.00;;;3.80;;
6485;SDS011;3276;48.490;9.222;2023-07-22T11:02:27;3.90;;;3.70;;
6485;SDS011;3276;48.490;9.222;2023-07-22T11:05:02;4.60;;;4.20;;
6485;SDS011;3276;48.490;9.222;2023-07-22T11:09:57;4.50;;;4.20;;
6485;SDS011;3276;48.490;9.222;2023-07-22T11:12:24;4.53;;;4.23;;
6485;SDS011;3276;48.490;9.222;2023-07-22T11:14:51;4.27;;;3.87;;
6485;SDS011;3276;48.490;9.222;2023-07-22T11:17:18;4.17;;;3.90;;
6485;SDS011;3276;48.490;9.222;2023-07-22T11:19:54;4.10;;;3.80;;
6485;SDS011;3276;48.490;9.222;2023-07-22T11:22:20;4.40;;;4.10;;
6485;SDS011;3276;48.490;9.222;2023-07-22T11:24:46;4.43;;;4.17;;
6485;SDS011;3276;48.490;9.222;2023-07-22T11:27:12;4.50;;;4.20;;
6485;SDS011;3276;48.490;9.222;2023-07-22T11:29:38;4.43;;;4.13;;
6485;SDS011;3276;48.490;9.222;2023-07-22T11:32:04;4.60;;;4.30;;
6485;SDS011;3276;48.490;9.222;2023-07-22T11:34:30;6.27;;;4.53;;
6485;SDS011;3276;48.490;9.222;2023-07-22T11:36:56;4.90;;;4.23;;
6485;SDS011;3276;48.490;9.222;2023-07-22T11:39:24;4.60;;;4.20;;
6485;SDS011;3276;48.490;9.222;2023-07-22T11:41:50;4.67;;;4.27;;
6485;SDS011;3276;48.490;9.222;2023-07-22T11:44:17;4.80;;;4.40;;
6485;SDS011;3276;48.490;9.222;2023-07-22T11:46:58;4.17;;;3.87;;
6485;SDS011;3276;48.490;9.222;2023-07-22T11:51:59;4.90;;;4.40;;
6485;SDS011;3276;48.490;9.222;2023-07-22T11:54:25;5.33;;;4.57;;
6485;SDS011;3276;48.490;9.222;2023-07-22T11:56:52;4.10;;;3.90;;
6485;SDS011;3276;48.490;9.222;2023-07-22T11:59:31;4.50;;;4.20;;
6485;SDS011;3276;48.490;9.222;2023-07-22T12:01:59;4.30;;;4.03;;
6485;SDS011;3276;48.490;9.222;2023-07-22T12:04:26;4.53;;;4.23;;
6485;SDS011;3276;48.490;9.222;2023-07-22T12:06:51;5.53;;;4.73;;
6485;SDS011;3276;48.490;9.222;2023-07-22T12:09:17;4.70;;;4.40;;
6485;SDS011;3276;48.490;9.222;2023-07-22T12:11:42;6.10;;;5.50;;
6485;SDS011;3276;48.490;9.222;2023-07-22T12:14:11;4.37;;;4.00;;
6485;SDS011;3276;48.490;9.222;2023-07-22T12:16:39;5.57;;;5.17;;
6485;SDS011;3276;48.490;9.222;2023-07-22T12:19:08;4.00;;;3.70;;
6485;SDS011;3276;48.490;9.222;2023-07-22T12:21:34;4.60;;;4.20;;
6485;SDS011;3276;48.490;9.222;2023-07-22T12:24:00;5.50;;;5.00;;
6485;SDS011;3276;48.490;9.222;2023-07-22T12:26:26;4.27;;;3.97;;
6485;SDS011;3276;48.490;9.222;2023-07-22T12:28:52;4.60;;;4.30;;
6485;SDS011;3276;48.490;9.222;2023-07-22T12:31:18;4.23;;;4.00;;
6485;SDS011;3276;48.490;9.222;2023-07-22T12:33:43;4.50;;;4.20;;
6485;SDS011;3276;48.490;9.222;2023-07-22T12:36:10;4.47;;;4.17;;
6485;SDS011;3276;48.490;9.222;2023-07-22T12:38:35;4.83;;;4.47;;
6485;SDS011;3276;48.490;9.222;2023-07-22T12:41:01;5.27;;;4.87;;
6485;SDS011;3276;48.490;9.222;2023-07-22T12:43:27;4.53;;;4.23;;
6485;SDS011;3276;48.490;9.222;2023-07-22T12:45:53;4.33;;;4.03;;
6485;SDS011;3276;48.490;9.222;2023-07-22T12:48:18;5.53;;;5.00;;
6485;SDS011;3276;48.490;9.222;2023-07-22T12:50:44;4.70;;;4.40;;
6485;SDS011;3276;48.490;9.222;2023-07-22T12:53:10;5.30;;;4.90;;
6485;SDS011;3276;48.490;9.222;2023-07-22T12:55:35;4.60;;;4.30;;
6485;SDS011;3276;48.490;9.222;2023-07-22T12:58:01;5.00;;;4.70;;
6485;SDS011;3276;48.490;9.222;2023-07-22T13:00:27;8.33;;;6.90;;
6485;SDS011;3276;48.490;9.222;2023-07-22T13:02:53;5.70;;;5.30;;
6485;SDS011;3276;48.490;9.222;2023-07-22T13:05:19;6.00;;;5.60;;
6485;SDS011;3276;48.490;9.222;2023-07-22T13:07:44;5.20;;;4.70;;
6485;SDS011;3276;48.490;9.222;2023-07-22T13:10:10;4.87;;;4.57;;
6485;SDS011;3276;48.490;9.222;2023-07-22T13:12:37;4.90;;;4.57;;
6485;SDS011;3276;48.490;9.222;2023-07-22T13:15:04;5.63;;;5.23;;
6485;SDS011;3276;48.490;9.222;2023-07-22T13:17:30;5.10;;;4.70;;
6485;SDS011;3276;48.490;9.222;2023-07-22T13:19:56;5.10;;;4.70;;
6485;SDS011;3276;48.490;9.222;2023-07-22T13:22:22;5.10;;;4.70;;
6485;SDS011;3276;48.490;9.222;2023-07-22T13:24:47;5.37;;;4.97;;
6485;SDS011;3276;48.490;9.222;2023-07-22T13:27:13;4.90;;;4.60;;
6485;SDS011;3276;48.490;9.222;2023-07-22T13:29:38;4.60;;;4.30;;
6485;SDS011;3276;48.490;9.222;2023-07-22T13:32:04;5.00;;;4.60;;
6485;SDS011;3276;48.490;9.222;2023-07-22T13:34:31;4.63;;;4.33;;
6485;SDS011;3276;48.490;9.222;2023-07-22T13:36:56;5.83;;;5.27;;
6485;SDS011;3276;48.490;9.222;2023-07-22T13:39:22;5.13;;;4.73;;
6485;SDS011;3276;48.490;9.222;2023-07-22T13:41:47;5.40;;;5.00;;
6485;SDS011;3276;48.490;9.222;2023-07-22T13:44:14;4.90;;;4.60;;
6485;SDS011;3276;48.490;9.222;2023-07-22T13:46:39;5.50;;;5.10;;
6485;SDS011;3276;48.490;9.222;2023-07-22T13:49:06;5.40;;;5.00;;
6485;SDS011;3276;48.490;9.222;2023-07-22T13:51:31;5.17;;;4.87;;
6485;SDS011;3276;48.490;9.222;2023-07-22T13:53:57;4.57;;;4.27;;
6485;SDS011;3276;48.490;9.222;2023-07-22T13:56:23;5.30;;;5.00;;
6485;SDS011;3276;48.490;9.222;2023-07-22T13:58:49;5.60;;;5.20;;
6485;SDS011;3276;48.490;9.222;2023-07-22T14:01:14;5.30;;;4.90;;
6485;SDS011;3276;48.490;9.222;2023-07-22T14:03:40;5.50;;;5.10;;
6485;SDS011;3276;48.490;9.222;2023-07-22T14:06:05;5.50;;;5.00;;
6485;SDS011;3276;48.490;9.222;2023-07-22T14:08:31;5.80;;;5.40;;
6485;SDS011;3276;48.490;9.222;2023-07-22T14:10:58;5.70;;;5.30;;
6485;SDS011;3276;48.490;9.222;2023-07-22T14:13:24;5.27;;;4.77;;
6485;SDS011;3276;48.490;9.222;2023-07-22T14:15:49;5.43;;;4.93;;
6485;SDS011;3276;48.490;9.222;2023-07-22T14:18:15;6.50;;;4.80;;
6485;SDS011;3276;48.490;9.222;2023-07-22T14:20:42;5.40;;;4.90;;
6485;SDS011;3276;48.490;9.222;2023-07-22T14:23:09;5.27;;;4.90;;
6485;SDS011;3276;48.490;9.222;2023-07-22T14:25:34;4.67;;;4.37;;
6485;SDS011;3276;48.490;9.222;2023-07-22T14:28:00;5.20;;;4.80;;
6485;SDS011;3276;48.490;9.222;2023-07-22T14:30:25;4.80;;;4.50;;
6485;SDS011;3276;48.490;9.222;2023-07-22T14:32:51;4.97;;;4.60;;
6485;SDS011;3276;48.490;9.222;2023-07-22T14:35:16;5.60;;;5.10;;
6485;SDS011;3276;48.490;9.222;2023-07-22T14:37:42;5.40;;;5.00;;
6485;SDS011;3276;48.490;9.222;2023-07-22T14:40:07;4.40;;;4.10;;
6485;SDS011;3276;48.490;9.222;2023-07-22T14:42:33;5.60;;;4.93;;
6485;SDS011;3276;48.490;9.222;2023-07-22T14:44:59;5.70;;;4.97;;
6485;SDS011;3276;48.490;9.222;2023-07-22T14:47:25;4.07;;;3.77;;
6485;SDS011;3276;48.490;9.222;2023-07-22T14:49:51;5.37;;;4.87;;
6485;SDS011;3276;48.490;9.222;2023-07-22T14:52:16;6.07;;;5.60;;
6485;SDS011;3276;48.490;9.222;2023-07-22T14:54:42;5.40;;;5.00;;
6485;SDS011;3276;48.490;9.222;2023-07-22T14:57:08;5.00;;;4.70;;
6485;SDS011;3276;48.490;9.222;2023-07-22T14:59:34;5.50;;;5.10;;
6485;SDS011;3276;48.490;9.222;2023-07-22T15:01:59;5.53;;;5.13;;
6485;SDS011;3276;48.490;9.222;2023-07-22T15:04:25;6.10;;;5.53;;
6485;SDS011;3276;48.490;9.222;2023-07-22T15:06:50;5.53;;;5.03;;
6485;SDS011;3276;48.490;9.222;2023-07-22T15:09:16;5.30;;;4.90;;
6485;SDS011;3276;48.490;9.222;2023-07-22T15:11:41;5.47;;;4.97;;
6485;SDS011;3276;48.490;9.222;2023-07-22T15:14:07;5.60;;;5.10;;
6485;SDS011;3276;48.490;9.222;2023-07-22T15:16:32;4.93;;;4.53;;
6485;SDS011;3276;48.490;9.222;2023-07-22T15:18:58;5.47;;;4.97;;
6485;SDS011;3276;48.490;9.222;2023-07-22T15:21:24;5.10;;;4.70;;